createdAt,value
2018-06-01T00:00:15.735Z,0.00
2018-06-01T00:01:15.737Z,0.00
2018-06-01T00:02:15.743Z,0.00
2018-06-01T00:03:15.742Z,0.00
2018-06-01T00:04:15.738Z,0.00
2018-06-01T00:05:15.739Z,0.00
2018-06-01T00:06:15.739Z,0.00
2018-06-01T00:07:15.741Z,0.00
2018-06-01T00:08:15.746Z,0.00
2018-06-01T00:09:15.746Z,0.00
2018-06-01T00:10:15.746Z,0.00
2018-06-01T00:11:15.748Z,0.00
2018-06-01T00:12:15.743Z,0.00
2018-06-01T00:13:15.743Z,0.00
2018-06-01T00:14:15.744Z,0.00
2018-06-01T00:15:15.745Z,0.00
2018-06-01T00:16:15.748Z,0.00
2018-06-01T00:17:15.749Z,0.00
2018-06-01T00:18:15.747Z,0.00
2018-06-01T00:19:15.747Z,0.00
2018-06-01T00:20:15.751Z,0.00
2018-06-01T00:21:15.752Z,0.00
2018-06-01T00:22:15.753Z,0.00
2018-06-01T00:23:15.754Z,0.00
2018-06-01T00:24:15.749Z,0.00
2018-06-01T00:25:15.753Z,0.00
2018-06-01T00:26:15.750Z,0.00
2018-06-01T00:27:15.752Z,0.00
2018-06-01T00:28:15.757Z,0.00
2018-06-01T00:29:15.755Z,0.00
2018-06-01T00:30:15.756Z,0.00
2018-06-01T00:31:15.758Z,0.00
2018-06-01T00:32:15.752Z,0.00
2018-06-01T00:33:15.753Z,0.00
2018-06-01T00:34:15.759Z,0.00
2018-06-01T00:35:15.758Z,0.00
2018-06-01T00:36:15.757Z,0.00
2018-06-01T00:37:15.755Z,0.00
2018-06-01T00:38:15.758Z,0.00
2018-06-01T00:39:15.755Z,0.00
2018-06-01T00:40:15.759Z,0.00
2018-06-01T00:41:15.760Z,0.00
2018-06-01T00:42:15.761Z,0.00
2018-06-01T00:43:15.761Z,0.00
2018-06-01T00:44:15.756Z,0.00
2018-06-01T00:45:15.757Z,0.00
2018-06-01T00:46:15.758Z,0.00
2018-06-01T00:47:15.758Z,0.00
2018-06-01T00:48:15.763Z,0.00
2018-06-01T00:49:15.763Z,0.00
2018-06-01T00:50:15.758Z,0.00
2018-06-01T00:51:15.760Z,0.00
2018-06-01T00:52:15.766Z,0.00
2018-06-01T00:53:15.763Z,0.00
2018-06-01T00:54:15.764Z,0.00
2018-06-01T00:55:15.765Z,0.00
2018-06-01T00:56:15.766Z,0.00
2018-06-01T00:57:15.761Z,0.00
2018-06-01T00:58:15.761Z,0.00
2018-06-01T00:59:15.761Z,0.00
2018-06-01T01:00:15.769Z,0.00
2018-06-01T01:01:15.767Z,0.00
2018-06-01T01:02:15.768Z,0.00
2018-06-01T01:03:15.767Z,0.00
2018-06-01T01:04:15.762Z,0.00
2018-06-01T01:05:15.764Z,0.00
2018-06-01T01:06:15.768Z,0.00
2018-06-01T01:07:15.769Z,0.00
2018-06-01T01:08:15.763Z,0.00
2018-06-01T01:09:15.765Z,0.00
2018-06-01T01:10:15.764Z,0.00
2018-06-01T01:11:15.764Z,0.00
2018-06-01T01:12:15.770Z,0.00
2018-06-01T01:13:15.770Z,0.00
2018-06-01T01:14:15.770Z,0.00
2018-06-01T01:15:15.771Z,0.00
2018-06-01T01:16:15.765Z,0.00
2018-06-01T01:17:15.765Z,0.00
2018-06-01T01:18:15.766Z,0.00
2018-06-01T01:19:15.767Z,0.00
2018-06-01T01:20:15.771Z,0.00
2018-06-01T01:21:15.771Z,0.00
2018-06-01T01:22:15.766Z,0.00
2018-06-01T01:23:15.767Z,0.00
2018-06-01T01:24:15.773Z,0.00
2018-06-01T01:25:15.771Z,0.00
2018-06-01T01:26:15.771Z,0.00
2018-06-01T01:27:15.771Z,0.00
2018-06-01T01:28:15.770Z,0.00
2018-06-01T01:29:15.772Z,0.00
2018-06-01T01:30:15.767Z,0.00
2018-06-01T01:31:15.768Z,0.00
2018-06-01T01:32:15.775Z,0.00
2018-06-01T01:33:15.772Z,0.00
2018-06-01T01:34:15.773Z,0.00
2018-06-01T01:35:15.773Z,0.00
2018-06-01T01:36:15.774Z,0.00
2018-06-01T01:37:15.771Z,0.00
2018-06-01T01:38:15.773Z,0.00
2018-06-01T01:39:15.773Z,0.00
2018-06-01T01:40:15.771Z,0.00
2018-06-01T01:41:15.769Z,0.00
2018-06-01T01:42:15.770Z,0.00
2018-06-01T01:43:15.770Z,0.00
2018-06-01T01:44:15.775Z,0.00
2018-06-01T01:45:15.774Z,0.00
2018-06-01T01:46:15.776Z,0.00
2018-06-01T01:47:15.776Z,0.00
2018-06-01T01:48:15.770Z,0.00
2018-06-01T01:49:15.771Z,0.00
2018-06-01T01:50:15.776Z,0.00
2018-06-01T01:51:15.772Z,0.00
2018-06-01T01:52:15.776Z,0.00
2018-06-01T01:53:15.777Z,0.00
2018-06-01T01:54:15.773Z,0.00
2018-06-01T01:55:15.774Z,0.00
2018-06-01T01:56:15.778Z,0.00
2018-06-01T01:57:15.779Z,0.00
2018-06-01T01:58:15.779Z,0.00
2018-06-01T01:59:15.780Z,0.00
2018-06-01T02:00:15.775Z,0.00
2018-06-01T02:01:15.775Z,0.00
2018-06-01T02:02:15.782Z,0.00
2018-06-01T02:03:15.776Z,0.00
2018-06-01T02:04:15.781Z,0.00
2018-06-01T02:05:15.782Z,0.00
2018-06-01T02:06:15.781Z,0.00
2018-06-01T02:07:15.782Z,0.00
2018-06-01T02:08:15.777Z,0.00
2018-06-01T02:09:15.777Z,0.00
2018-06-01T02:10:15.783Z,0.00
2018-06-01T02:11:15.783Z,0.00
2018-06-01T02:12:15.778Z,0.00
2018-06-01T02:13:15.779Z,0.00
2018-06-01T02:14:15.780Z,0.00
2018-06-01T02:15:15.781Z,0.00
2018-06-01T02:16:15.785Z,0.00
2018-06-01T02:17:15.790Z,0.00
2018-06-01T02:18:15.786Z,0.00
2018-06-01T02:19:15.786Z,0.00
2018-06-01T02:20:15.800Z,0.00
2018-06-01T02:21:15.781Z,0.00
2018-06-01T02:22:15.782Z,0.00
2018-06-01T02:23:15.784Z,0.00
2018-06-01T02:24:15.786Z,0.00
2018-06-01T02:25:15.787Z,0.00
2018-06-01T02:26:15.791Z,0.00
2018-06-01T02:27:15.784Z,0.00
2018-06-01T02:28:15.787Z,0.00
2018-06-01T02:29:15.789Z,0.00
2018-06-01T02:30:15.789Z,0.00
2018-06-01T02:31:15.791Z,0.00
2018-06-01T02:32:15.831Z,0.00
2018-06-01T02:33:15.785Z,0.00
2018-06-01T02:34:15.786Z,0.00
2018-06-01T02:35:15.786Z,0.00
2018-06-01T02:36:15.790Z,0.00
2018-06-01T02:37:15.804Z,0.00
2018-06-01T02:38:15.792Z,0.00
2018-06-01T02:39:15.793Z,0.00
2018-06-01T02:40:15.791Z,0.00
2018-06-01T02:41:15.787Z,0.00
2018-06-01T02:42:15.792Z,0.00
2018-06-01T02:43:15.794Z,0.00
2018-06-01T02:44:15.788Z,0.00
2018-06-01T02:45:15.788Z,0.00
2018-06-01T02:46:15.791Z,4.00
2018-06-01T02:47:15.788Z,4.00
2018-06-01T02:48:15.792Z,0.00
2018-06-01T02:49:15.795Z,0.00
2018-06-01T02:50:15.793Z,0.00
2018-06-01T02:51:15.793Z,0.00
2018-06-01T02:52:15.790Z,4.00
2018-06-01T02:53:15.792Z,4.00
2018-06-01T02:54:15.790Z,0.00
2018-06-01T02:55:15.791Z,0.00
2018-06-01T02:56:15.795Z,4.00
2018-06-01T02:57:15.797Z,4.00
2018-06-01T02:58:15.790Z,4.00
2018-06-01T02:59:15.795Z,4.00
2018-06-01T03:00:15.794Z,4.00
2018-06-01T03:01:15.796Z,4.00
2018-06-01T03:02:15.795Z,4.00
2018-06-01T03:03:15.796Z,4.00
2018-06-01T03:04:15.791Z,4.00
2018-06-01T03:05:15.804Z,8.00
2018-06-01T03:06:15.792Z,8.00
2018-06-01T03:07:15.791Z,8.00
2018-06-01T03:08:15.795Z,8.00
2018-06-01T03:09:15.795Z,12.00
2018-06-01T03:10:15.795Z,12.00
2018-06-01T03:11:15.796Z,12.00
2018-06-01T03:12:15.790Z,16.00
2018-06-01T03:13:15.791Z,16.00
2018-06-01T03:14:15.798Z,16.00
2018-06-01T03:15:15.795Z,20.00
2018-06-01T03:16:15.791Z,20.00
2018-06-01T03:17:15.791Z,24.00
2018-06-01T03:18:15.792Z,24.00
2018-06-01T03:19:15.791Z,28.00
2018-06-01T03:20:15.795Z,28.00
2018-06-01T03:21:15.795Z,32.00
2018-06-01T03:22:15.795Z,32.00
2018-06-01T03:23:15.795Z,40.00
2018-06-01T03:24:15.795Z,48.00
2018-06-01T03:25:15.793Z,60.00
2018-06-01T03:26:15.885Z,72.00
2018-06-01T03:27:15.792Z,96.00
2018-06-01T03:28:15.797Z,124.00
2018-06-01T03:29:15.798Z,152.00
2018-06-01T03:30:15.792Z,168.00
2018-06-01T03:31:15.793Z,176.00
2018-06-01T03:32:15.797Z,176.00
2018-06-01T03:33:15.802Z,180.00
2018-06-01T03:34:15.797Z,180.00
2018-06-01T03:35:15.798Z,180.00
2018-06-01T03:36:15.792Z,176.00
2018-06-01T03:37:15.794Z,168.00
2018-06-01T03:38:15.792Z,168.00
2018-06-01T03:39:15.793Z,168.00
2018-06-01T03:40:15.796Z,168.00
2018-06-01T03:41:15.797Z,168.00
2018-06-01T03:42:15.801Z,160.00
2018-06-01T03:43:15.798Z,156.00
2018-06-01T03:44:15.793Z,152.00
2018-06-01T03:45:15.793Z,148.00
2018-06-01T03:46:15.799Z,148.00
2018-06-01T03:47:15.799Z,148.00
2018-06-01T03:48:15.794Z,152.00
2018-06-01T03:49:15.795Z,152.00
2018-06-01T03:50:15.794Z,152.00
2018-06-01T03:51:15.794Z,152.00
2018-06-01T03:52:15.802Z,152.00
2018-06-01T03:53:15.799Z,152.00
2018-06-01T03:54:15.800Z,152.00
2018-06-01T03:55:15.799Z,156.00
2018-06-01T03:56:15.794Z,160.00
2018-06-01T03:57:15.799Z,164.00
2018-06-01T03:58:15.797Z,168.00
2018-06-01T03:59:15.797Z,168.00
2018-06-01T04:00:15.800Z,172.00
2018-06-01T04:01:15.811Z,176.00
2018-06-01T04:02:15.799Z,176.00
2018-06-01T04:03:15.798Z,176.00
2018-06-01T04:04:15.801Z,176.00
2018-06-01T04:05:15.802Z,180.00
2018-06-01T04:06:15.802Z,176.00
2018-06-01T04:07:15.802Z,172.00
2018-06-01T04:08:15.798Z,168.00
2018-06-01T04:09:15.797Z,156.00
2018-06-01T04:10:15.798Z,148.00
2018-06-01T04:11:15.798Z,136.00
2018-06-01T04:12:15.803Z,136.00
2018-06-01T04:13:15.803Z,136.00
2018-06-01T04:14:15.803Z,140.00
2018-06-01T04:15:15.804Z,148.00
2018-06-01T04:16:15.799Z,156.00
2018-06-01T04:17:15.800Z,152.00
2018-06-01T04:18:15.806Z,152.00
2018-06-01T04:19:15.806Z,156.00
2018-06-01T04:20:15.799Z,156.00
2018-06-01T04:21:15.800Z,160.00
2018-06-01T04:22:15.800Z,160.00
2018-06-01T04:23:15.801Z,152.00
2018-06-01T04:24:15.804Z,148.00
2018-06-01T04:25:15.806Z,140.00
2018-06-01T04:26:15.805Z,136.00
2018-06-01T04:27:15.807Z,132.00
2018-06-01T04:28:15.801Z,128.00
2018-06-01T04:29:15.803Z,116.00
2018-06-01T04:30:15.803Z,108.00
2018-06-01T04:31:15.803Z,100.00
2018-06-01T04:32:15.808Z,96.00
2018-06-01T04:33:15.811Z,96.00
2018-06-01T04:34:15.806Z,100.00
2018-06-01T04:35:15.808Z,108.00
2018-06-01T04:36:15.811Z,116.00
2018-06-01T04:37:15.813Z,120.00
2018-06-01T04:38:15.809Z,120.00
2018-06-01T04:39:15.808Z,116.00
2018-06-01T04:40:15.804Z,108.00
2018-06-01T04:41:15.803Z,104.00
2018-06-01T04:42:15.805Z,100.00
2018-06-01T04:43:15.806Z,96.00
2018-06-01T04:44:15.808Z,88.00
2018-06-01T04:45:15.810Z,80.00
2018-06-01T04:46:15.809Z,68.00
2018-06-01T04:47:15.810Z,48.00
2018-06-01T04:48:15.805Z,36.00
2018-06-01T04:49:15.857Z,32.00
2018-06-01T04:50:15.811Z,40.00
2018-06-01T04:51:15.810Z,52.00
2018-06-01T04:52:15.805Z,64.00
2018-06-01T04:53:15.807Z,76.00
2018-06-01T04:54:15.806Z,92.00
2018-06-01T04:55:15.806Z,108.00
2018-06-01T04:56:15.811Z,120.00
2018-06-01T04:57:15.811Z,124.00
2018-06-01T04:58:15.812Z,120.00
2018-06-01T04:59:15.813Z,112.00
2018-06-01T05:00:15.806Z,92.00
2018-06-01T05:01:15.806Z,80.00
2018-06-01T05:02:15.807Z,72.00
2018-06-01T05:03:15.807Z,68.00
2018-06-01T05:04:15.814Z,60.00
2018-06-01T05:05:15.811Z,56.00
2018-06-01T05:06:15.807Z,52.00
2018-06-01T05:07:15.807Z,44.00
2018-06-01T05:08:15.810Z,44.00
2018-06-01T05:09:15.814Z,48.00
2018-06-01T05:10:15.818Z,56.00
2018-06-01T05:11:15.813Z,64.00
2018-06-01T05:12:15.807Z,76.00
2018-06-01T05:13:15.808Z,80.00
2018-06-01T05:14:15.811Z,80.00
2018-06-01T05:15:15.808Z,72.00
2018-06-01T05:16:15.812Z,64.00
2018-06-01T05:17:15.814Z,60.00
2018-06-01T05:18:15.813Z,56.00
2018-06-01T05:19:15.812Z,52.00
2018-06-01T05:20:15.807Z,56.00
2018-06-01T05:21:15.807Z,60.00
2018-06-01T05:22:15.827Z,60.00
2018-06-01T05:23:15.812Z,68.00
2018-06-01T05:24:15.807Z,68.00
2018-06-01T05:25:15.808Z,72.00
2018-06-01T05:26:15.807Z,84.00
2018-06-01T05:27:15.809Z,96.00
2018-06-01T05:28:15.811Z,108.00
2018-06-01T05:29:15.814Z,128.00
2018-06-01T05:30:15.813Z,88.00
2018-06-01T05:31:15.814Z,168.00
2018-06-01T05:32:15.807Z,184.00
2018-06-01T05:33:15.808Z,196.00
2018-06-01T05:34:15.812Z,208.00
2018-06-01T05:35:15.807Z,232.00
2018-06-01T05:36:15.812Z,252.00
2018-06-01T05:37:15.811Z,276.00
2018-06-01T05:38:15.807Z,312.00
2018-06-01T05:39:15.806Z,360.00
2018-06-01T05:40:15.810Z,412.00
2018-06-01T05:41:15.809Z,472.00
2018-06-01T05:42:15.811Z,548.00
2018-06-01T05:43:15.813Z,644.00
2018-06-01T05:44:15.807Z,760.00
2018-06-01T05:45:15.805Z,868.00
2018-06-01T05:46:15.805Z,980.00
2018-06-01T05:47:15.823Z,1076.00
2018-06-01T05:48:15.808Z,1164.00
2018-06-01T05:49:15.808Z,1260.00
2018-06-01T05:50:15.810Z,1360.00
2018-06-01T05:51:15.814Z,1476.00
2018-06-01T05:52:15.803Z,1580.00
2018-06-01T05:53:15.806Z,1664.00
2018-06-01T05:54:15.807Z,1752.00
2018-06-01T05:55:15.808Z,1848.00
2018-06-01T05:56:15.802Z,1960.00
2018-06-01T05:57:15.801Z,2036.00
2018-06-01T05:58:15.800Z,2084.00
2018-06-01T05:59:15.801Z,2156.00
2018-06-01T06:00:15.804Z,2248.00
2018-06-01T06:01:15.804Z,2340.00
2018-06-01T06:02:15.807Z,2440.00
2018-06-01T06:03:15.805Z,2624.00
2018-06-01T06:04:15.800Z,2880.00
2018-06-01T06:05:15.800Z,3096.00
2018-06-01T06:06:15.799Z,3244.00
2018-06-01T06:07:15.799Z,3312.00
2018-06-01T06:08:15.803Z,3328.00
2018-06-01T06:09:15.806Z,3136.00
2018-06-01T06:10:15.799Z,2800.00
2018-06-01T06:11:15.799Z,2564.00
2018-06-01T06:12:15.804Z,2448.00
2018-06-01T06:13:15.829Z,2444.00
2018-06-01T06:14:15.804Z,2520.00
2018-06-01T06:15:15.804Z,2640.00
2018-06-01T06:16:15.798Z,2744.00
2018-06-01T06:17:15.798Z,2796.00
2018-06-01T06:18:15.799Z,2816.00
2018-06-01T06:19:15.798Z,2836.00
2018-06-01T06:20:15.802Z,2800.00
2018-06-01T06:21:15.802Z,2720.00
2018-06-01T06:22:15.803Z,2536.00
2018-06-01T06:23:15.806Z,2332.00
2018-06-01T06:24:15.797Z,2144.00
2018-06-01T06:25:15.798Z,2020.00
2018-06-01T06:26:15.803Z,1960.00
2018-06-01T06:27:15.807Z,1912.00
2018-06-01T06:28:15.799Z,1852.00
2018-06-01T06:29:15.797Z,1800.00
2018-06-01T06:30:15.798Z,1764.00
2018-06-01T06:31:15.800Z,1724.00
2018-06-01T06:32:15.802Z,1676.00
2018-06-01T06:33:15.803Z,1616.00
2018-06-01T06:34:15.803Z,1604.00
2018-06-01T06:35:15.803Z,1628.00
2018-06-01T06:36:15.798Z,1692.00
2018-06-01T06:37:15.798Z,1772.00
2018-06-01T06:38:15.799Z,1880.00
2018-06-01T06:39:15.800Z,2016.00
2018-06-01T06:40:15.803Z,2160.00
2018-06-01T06:41:15.805Z,2304.00
2018-06-01T06:42:15.799Z,2452.00
2018-06-01T06:43:15.905Z,2480.00
2018-06-01T06:44:15.804Z,2372.00
2018-06-01T06:45:15.805Z,2308.00
2018-06-01T06:46:15.804Z,2272.00
2018-06-01T06:47:15.805Z,2264.00
2018-06-01T06:48:15.799Z,2288.00
2018-06-01T06:49:15.800Z,2316.00
2018-06-01T06:50:15.804Z,2324.00
2018-06-01T06:51:15.800Z,2296.00
2018-06-01T06:52:15.804Z,2028.00
2018-06-01T06:53:15.805Z,1980.00
2018-06-01T06:54:15.804Z,1948.00
2018-06-01T06:55:15.828Z,1936.00
2018-06-01T06:56:15.799Z,1940.00
2018-06-01T06:57:15.801Z,1972.00
2018-06-01T06:58:15.805Z,2036.00
2018-06-01T06:59:15.804Z,2120.00
2018-06-01T07:00:15.800Z,2208.00
2018-06-01T07:01:15.800Z,2320.00
2018-06-01T07:02:15.802Z,2456.00
2018-06-01T07:03:15.800Z,2616.00
2018-06-01T07:04:15.805Z,2800.00
2018-06-01T07:05:15.804Z,2984.00
2018-06-01T07:06:15.804Z,3164.00
2018-06-01T07:07:15.804Z,3372.00
2018-06-01T07:08:15.798Z,3608.00
2018-06-01T07:09:15.804Z,3884.00
2018-06-01T07:10:15.801Z,4216.00
2018-06-01T07:11:15.800Z,4580.00
2018-06-01T07:12:15.804Z,5000.00
2018-06-01T07:13:15.806Z,5452.00
2018-06-01T07:14:15.800Z,5808.00
2018-06-01T07:15:15.800Z,6056.00
2018-06-01T07:16:15.804Z,6180.00
2018-06-01T07:17:15.805Z,6216.00
2018-06-01T07:18:15.860Z,6236.00
2018-06-01T07:19:15.807Z,6212.00
2018-06-01T07:20:15.853Z,5972.00
2018-06-01T07:21:15.805Z,5632.00
2018-06-01T07:22:15.802Z,5160.00
2018-06-01T07:23:15.805Z,4624.00
2018-06-01T07:24:15.809Z,4200.00
2018-06-01T07:25:15.808Z,4064.00
2018-06-01T07:26:15.808Z,4200.00
2018-06-01T07:27:15.809Z,4556.00
2018-06-01T07:28:15.808Z,4892.00
2018-06-01T07:29:15.815Z,5084.00
2018-06-01T07:30:15.811Z,5028.00
2018-06-01T07:31:15.814Z,4716.00
2018-06-01T07:32:15.807Z,4208.00
2018-06-01T07:33:15.844Z,3544.00
2018-06-01T07:34:15.809Z,2944.00
2018-06-01T07:35:15.810Z,2420.00
2018-06-01T07:36:15.823Z,2024.00
2018-06-01T07:37:15.816Z,1748.00
2018-06-01T07:38:15.817Z,1568.00
2018-06-01T07:39:15.819Z,1488.00
2018-06-01T07:40:15.814Z,1448.00
2018-06-01T07:41:15.813Z,1448.00
2018-06-01T07:42:15.814Z,1524.00
2018-06-01T07:43:15.815Z,1684.00
2018-06-01T07:44:15.822Z,1848.00
2018-06-01T07:45:15.820Z,1964.00
2018-06-01T07:46:15.820Z,2056.00
2018-06-01T07:47:15.817Z,2144.00
2018-06-01T07:48:15.821Z,2252.00
2018-06-01T07:49:15.822Z,2376.00
2018-06-01T07:50:15.823Z,2500.00
2018-06-01T07:51:15.823Z,2648.00
2018-06-01T07:52:15.819Z,2804.00
2018-06-01T07:53:15.820Z,3020.00
2018-06-01T07:54:15.820Z,3356.00
2018-06-01T07:55:15.821Z,3804.00
2018-06-01T07:56:15.826Z,4328.00
2018-06-01T07:57:15.825Z,4788.00
2018-06-01T07:58:15.828Z,5092.00
2018-06-01T07:59:15.827Z,5740.00
2018-06-01T08:00:15.824Z,5244.00
2018-06-01T08:01:15.823Z,4216.00
2018-06-01T08:02:15.829Z,3152.00
2018-06-01T08:03:15.828Z,2508.00
2018-06-01T08:04:15.823Z,2288.00
2018-06-01T08:05:15.824Z,2204.00
2018-06-01T08:06:15.825Z,2156.00
2018-06-01T08:07:15.827Z,2200.00
2018-06-01T08:08:15.830Z,2244.00
2018-06-01T08:09:15.847Z,2208.00
2018-06-01T08:10:15.831Z,2096.00
2018-06-01T08:11:15.838Z,1908.00
2018-06-01T08:12:15.828Z,1648.00
2018-06-01T08:13:15.828Z,1472.00
2018-06-01T08:14:15.829Z,1456.00
2018-06-01T08:15:15.830Z,1460.00
2018-06-01T08:16:15.835Z,1612.00
2018-06-01T08:17:15.836Z,1744.00
2018-06-01T08:18:15.832Z,1640.00
2018-06-01T08:19:15.836Z,1668.00
2018-06-01T08:20:15.848Z,1804.00
2018-06-01T08:21:15.838Z,1692.00
2018-06-01T08:22:15.838Z,1064.00
2018-06-01T08:23:15.842Z,636.00
2018-06-01T08:24:15.833Z,436.00
2018-06-01T08:25:15.835Z,352.00
2018-06-01T08:26:15.837Z,324.00
2018-06-01T08:27:15.835Z,332.00
2018-06-01T08:28:15.839Z,336.00
2018-06-01T08:29:15.840Z,364.00
2018-06-01T08:30:15.841Z,396.00
2018-06-01T08:31:15.851Z,392.00
2018-06-01T08:32:15.885Z,432.00
2018-06-01T08:33:15.836Z,496.00
2018-06-01T08:34:15.841Z,584.00
2018-06-01T08:35:15.842Z,688.00
2018-06-01T08:36:15.837Z,708.00
2018-06-01T08:37:15.837Z,804.00
2018-06-01T08:38:15.836Z,844.00
2018-06-01T08:39:15.837Z,860.00
2018-06-01T08:40:15.842Z,900.00
2018-06-01T08:41:15.841Z,936.00
2018-06-01T08:42:15.840Z,948.00
2018-06-01T08:43:15.840Z,972.00
2018-06-01T08:44:15.837Z,992.00
2018-06-01T08:45:15.836Z,1028.00
2018-06-01T08:46:15.836Z,1120.00
2018-06-01T08:47:15.844Z,1248.00
2018-06-01T08:48:15.840Z,1268.00
2018-06-01T08:49:15.844Z,1160.00
2018-06-01T08:50:15.845Z,1004.00
2018-06-01T08:51:15.837Z,792.00
2018-06-01T08:52:15.841Z,676.00
2018-06-01T08:53:15.840Z,628.00
2018-06-01T08:54:15.839Z,684.00
2018-06-01T08:55:15.840Z,732.00
2018-06-01T08:57:15.834Z,864.00
2018-06-01T08:58:15.834Z,880.00
2018-06-01T08:59:15.881Z,884.00
2018-06-01T09:00:15.838Z,924.00
2018-06-01T09:01:15.837Z,1004.00
2018-06-01T09:02:15.836Z,1128.00
2018-06-01T09:03:15.835Z,1336.00
2018-06-01T09:04:15.829Z,1500.00
2018-06-01T09:05:15.828Z,1636.00
2018-06-01T09:06:15.832Z,1764.00
2018-06-01T09:07:15.832Z,2108.00
2018-06-01T09:08:15.825Z,2776.00
2018-06-01T09:09:15.824Z,3496.00
2018-06-01T09:10:15.863Z,3964.00
2018-06-01T09:11:15.824Z,4224.00
2018-06-01T09:12:15.827Z,4348.00
2018-06-01T09:13:15.830Z,4312.00
2018-06-01T09:14:15.842Z,4620.00
2018-06-01T09:15:15.826Z,4696.00
2018-06-01T09:16:15.821Z,4600.00
2018-06-01T09:17:15.821Z,4876.00
2018-06-01T09:18:15.820Z,5076.00
2018-06-01T09:19:15.820Z,4804.00
2018-06-01T09:20:15.822Z,4380.00
2018-06-01T09:21:15.822Z,3988.00
2018-06-01T09:22:15.889Z,3908.00
2018-06-01T09:23:15.817Z,3884.00
2018-06-01T09:24:15.820Z,3804.00
2018-06-01T09:25:15.821Z,3644.00
2018-06-01T09:26:15.828Z,3472.00
2018-06-01T09:27:15.822Z,3364.00
2018-06-01T09:28:15.837Z,3316.00
2018-06-01T09:29:15.815Z,3200.00
2018-06-01T09:30:15.815Z,3324.00
2018-06-01T09:31:15.815Z,3436.00
2018-06-01T09:32:15.820Z,3564.00
2018-06-01T09:33:15.819Z,3720.00
2018-06-01T09:34:15.818Z,4000.00
2018-06-01T09:35:15.824Z,4440.00
2018-06-01T09:36:15.813Z,4748.00
2018-06-01T09:37:15.814Z,4756.00
2018-06-01T09:38:15.818Z,4788.00
2018-06-01T09:39:15.817Z,4948.00
2018-06-01T09:40:15.812Z,5364.00
2018-06-01T09:41:15.812Z,5456.00
2018-06-01T09:42:15.813Z,5508.00
2018-06-01T09:43:15.813Z,5484.00
2018-06-01T09:44:15.817Z,5176.00
2018-06-01T09:45:15.816Z,5336.00
2018-06-01T09:46:15.818Z,5712.00
2018-06-01T09:47:15.818Z,6292.00
2018-06-01T09:48:15.813Z,6536.00
2018-06-01T09:49:15.811Z,7088.00
2018-06-01T09:50:15.811Z,7812.00
2018-06-01T09:51:15.812Z,8500.00
2018-06-01T09:52:15.815Z,8856.00
2018-06-01T09:53:15.816Z,8916.00
2018-06-01T09:54:15.812Z,9116.00
2018-06-01T09:55:15.813Z,9224.00
2018-06-01T09:56:15.866Z,9456.00
2018-06-01T09:57:15.816Z,9700.00
2018-06-01T09:58:15.819Z,9552.00
2018-06-01T09:59:15.819Z,10308.00
2018-06-01T10:00:15.813Z,11032.00
2018-06-01T10:01:15.819Z,11300.00
2018-06-01T10:02:15.814Z,11568.00
2018-06-01T10:03:15.815Z,11728.00
2018-06-01T10:04:15.820Z,11792.00
2018-06-01T10:05:15.825Z,11844.00
2018-06-01T10:06:15.823Z,11908.00
2018-06-01T10:07:15.824Z,11900.00
2018-06-01T10:08:15.819Z,11908.00
2018-06-01T10:09:15.821Z,11904.00
2018-06-01T10:10:15.826Z,11848.00
2018-06-01T10:11:15.829Z,11728.00
2018-06-01T10:12:15.833Z,11504.00
2018-06-01T10:13:15.825Z,11040.00
2018-06-01T10:14:15.826Z,10272.00
2018-06-01T10:15:15.828Z,9744.00
2018-06-01T10:16:15.833Z,9720.00
2018-06-01T10:17:15.833Z,9480.00
2018-06-01T10:18:15.836Z,9444.00
2018-06-01T10:19:15.837Z,9440.00
2018-06-01T10:20:15.837Z,9444.00
2018-06-01T10:21:15.836Z,9572.00
2018-06-01T10:22:15.837Z,9748.00
2018-06-01T10:23:15.839Z,9924.00
2018-06-01T10:24:15.845Z,10024.00
2018-06-01T10:25:15.847Z,9612.00
2018-06-01T10:26:15.843Z,9832.00
2018-06-01T10:27:15.844Z,10144.00
2018-06-01T10:28:15.851Z,11112.00
2018-06-01T10:29:15.853Z,11056.00
2018-06-01T10:30:15.858Z,10000.00
2018-06-01T10:31:15.856Z,8908.00
2018-06-01T10:32:15.851Z,9584.00
2018-06-01T10:33:15.853Z,8944.00
2018-06-01T10:34:15.855Z,10752.00
2018-06-01T10:35:15.857Z,11212.00
2018-06-01T10:36:15.862Z,8260.00
2018-06-01T10:37:15.865Z,10432.00
2018-06-01T10:38:15.866Z,9636.00
2018-06-01T10:39:15.871Z,7424.00
2018-06-01T10:40:15.863Z,8944.00
2018-06-01T10:41:15.873Z,10976.00
2018-06-01T10:42:15.872Z,11412.00
2018-06-01T10:43:15.877Z,13124.00
2018-06-01T10:44:15.870Z,12080.00
2018-06-01T10:45:15.922Z,11708.00
2018-06-01T10:46:15.874Z,13076.00
2018-06-01T10:47:15.876Z,14740.00
2018-06-01T10:48:15.881Z,12780.00
2018-06-01T10:49:15.883Z,12404.00
2018-06-01T10:50:15.885Z,9000.00
2018-06-01T10:51:15.887Z,9392.00
2018-06-01T10:52:15.890Z,9584.00
2018-06-01T10:53:15.886Z,12000.00
2018-06-01T10:54:15.888Z,12876.00
2018-06-01T10:55:15.914Z,11516.00
2018-06-01T10:56:15.896Z,11592.00
2018-06-01T10:57:15.900Z,11256.00
2018-06-01T10:58:15.900Z,11792.00
2018-06-01T10:59:15.899Z,11896.00
2018-06-01T11:00:15.905Z,12472.00
2018-06-01T11:01:15.912Z,13576.00
2018-06-01T11:02:15.930Z,13424.00
2018-06-01T11:03:15.912Z,13700.00
2018-06-01T11:04:15.908Z,10956.00
2018-06-01T11:05:15.910Z,9900.00
2018-06-01T11:06:15.914Z,11932.00
2018-06-01T11:07:15.918Z,14148.00
2018-06-01T11:08:15.924Z,18304.00
2018-06-01T11:09:15.925Z,20128.00
2018-06-01T11:10:15.931Z,19872.00
2018-06-01T11:11:15.929Z,16528.00
2018-06-01T11:12:15.929Z,14644.00
2018-06-01T11:13:15.929Z,15140.00
2018-06-01T11:14:15.939Z,16140.00
2018-06-01T11:15:15.940Z,14500.00
2018-06-01T11:16:15.937Z,11704.00
2018-06-01T11:17:15.939Z,11144.00
2018-06-01T11:18:15.943Z,10420.00
2018-06-01T11:19:15.947Z,7148.00
2018-06-01T11:20:15.953Z,6724.00
2018-06-01T11:21:16.005Z,7608.00
2018-06-01T11:22:15.959Z,10204.00
2018-06-01T11:23:15.963Z,13556.00
2018-06-01T11:24:15.959Z,11560.00
2018-06-01T11:25:15.962Z,10876.00
2018-06-01T11:26:15.965Z,10784.00
2018-06-01T11:27:15.969Z,11840.00
2018-06-01T11:28:15.976Z,12232.00
2018-06-01T11:29:15.977Z,11948.00
2018-06-01T11:30:15.976Z,14484.00
2018-06-01T11:31:15.979Z,13696.00
2018-06-01T11:32:16.035Z,8696.00
2018-06-01T11:33:15.990Z,10628.00
2018-06-01T11:34:15.993Z,12240.00
2018-06-01T11:35:15.999Z,12772.00
2018-06-01T11:36:15.993Z,13824.00
2018-06-01T11:37:15.995Z,17024.00
2018-06-01T11:38:16.045Z,18272.00
2018-06-01T11:39:16.003Z,18240.00
2018-06-01T11:40:16.008Z,18528.00
2018-06-01T11:41:16.012Z,18880.00
2018-06-01T11:42:16.014Z,17504.00
2018-06-01T11:43:16.019Z,16864.00
2018-06-01T11:44:16.016Z,16736.00
2018-06-01T11:45:16.019Z,15980.00
2018-06-01T11:46:16.027Z,18048.00
2018-06-01T11:47:16.034Z,18816.00
2018-06-01T11:48:16.029Z,20000.00
2018-06-01T11:49:16.033Z,20832.00
2018-06-01T11:50:16.036Z,20704.00
2018-06-01T11:51:16.040Z,19936.00
2018-06-01T11:52:16.048Z,19424.00
2018-06-01T11:53:16.052Z,15112.00
2018-06-01T11:54:16.057Z,12868.00
2018-06-01T11:55:16.060Z,12564.00
2018-06-01T11:56:16.057Z,15496.00
2018-06-01T11:57:16.077Z,19168.00
2018-06-01T11:58:16.066Z,15780.00
2018-06-01T11:59:16.069Z,19936.00
2018-06-01T12:00:16.077Z,19552.00
2018-06-01T12:01:16.080Z,17472.00
2018-06-01T12:02:16.083Z,13644.00
2018-06-01T12:03:16.085Z,11552.00
2018-06-01T12:04:16.092Z,16768.00
2018-06-01T12:05:16.098Z,17856.00
2018-06-01T12:06:16.103Z,18432.00
2018-06-01T12:07:16.106Z,12168.00
2018-06-01T12:08:16.110Z,12216.00
2018-06-01T12:09:16.110Z,13756.00
2018-06-01T12:10:16.114Z,14684.00
2018-06-01T12:11:16.118Z,14948.00
2018-06-01T12:12:16.125Z,14356.00
2018-06-01T12:13:16.131Z,15696.00
2018-06-01T12:14:16.138Z,15912.00
2018-06-01T12:15:16.137Z,15496.00
2018-06-01T12:16:16.137Z,16704.00
2018-06-01T12:17:16.142Z,14588.00
2018-06-01T12:18:16.149Z,11808.00
2018-06-01T12:19:16.154Z,9168.00
2018-06-01T12:20:16.154Z,9844.00
2018-06-01T12:21:16.157Z,12036.00
2018-06-01T12:22:16.162Z,13076.00
2018-06-01T12:23:16.171Z,10108.00
2018-06-01T12:24:16.174Z,9496.00
2018-06-01T12:25:16.179Z,8420.00
2018-06-01T12:26:16.184Z,6948.00
2018-06-01T12:27:16.190Z,7004.00
2018-06-01T12:28:16.184Z,9044.00